sensor_id;sensor_type;location;lat;lon;timestamp;temperature;humidity
66271;DHT22;53063;39.614;8.814;2023-06-22T06:34:16;27.80;49.00
66271;DHT22;53063;39.614;8.814;2023-06-22T06:36:42;28.00;48.90
66271;DHT22;53063;39.614;8.814;2023-06-22T06:39:08;28.30;48.10
66271;DHT22;53063;39.614;8.814;2023-06-22T06:41:35;28.40;48.10
66271;DHT22;53063;39.614;8.814;2023-06-22T06:44:01;28.40;47.10
66271;DHT22;53063;39.614;8.814;2023-06-22T06:46:27;28.50;47.10
66271;DHT22;53063;39.614;8.814;2023-06-22T06:48:52;28.50;47.00
66271;DHT22;53063;39.614;8.814;2023-06-22T06:51:18;28.80;47.40
66271;DHT22;53063;39.614;8.814;2023-06-22T06:53:44;29.20;46.30
66271;DHT22;53063;39.614;8.814;2023-06-22T06:56:10;29.20;45.80
66271;DHT22;53063;39.614;8.814;2023-06-22T06:58:36;29.40;45.90
66271;DHT22;53063;39.614;8.814;2023-06-22T07:01:02;29.40;45.60
66271;DHT22;53063;39.614;8.814;2023-06-22T07:03:28;29.40;45.80
66271;DHT22;53063;39.614;8.814;2023-06-22T07:05:54;29.50;46.20
66271;DHT22;53063;39.614;8.814;2023-06-22T07:08:20;29.60;47.20
66271;DHT22;53063;39.614;8.814;2023-06-22T07:10:46;29.60;47.00
66271;DHT22;53063;39.614;8.814;2023-06-22T07:13:12;29.50;47.00
66271;DHT22;53063;39.614;8.814;2023-06-22T07:15:38;29.50;47.80
66271;DHT22;53063;39.614;8.814;2023-06-22T07:18:04;29.80;47.10
66271;DHT22;53063;39.614;8.814;2023-06-22T07:20:33;30.00;47.30
66271;DHT22;53063;39.614;8.814;2023-06-22T07:23:05;30.10;47.50
66271;DHT22;53063;39.614;8.814;2023-06-22T07:25:31;30.30;47.80
66271;DHT22;53063;39.614;8.814;2023-06-22T07:28:00;30.20;47.50
66271;DHT22;53063;39.614;8.814;2023-06-22T07:30:28;30.30;47.60
66271;DHT22;53063;39.614;8.814;2023-06-22T07:32:54;30.80;47.50
66271;DHT22;53063;39.614;8.814;2023-06-22T07:35:20;30.80;47.50
66271;DHT22;53063;39.614;8.814;2023-06-22T07:37:46;30.80;47.60
66271;DHT22;53063;39.614;8.814;2023-06-22T07:40:12;30.90;47.30
66271;DHT22;53063;39.614;8.814;2023-06-22T07:42:38;30.90;48.20
66271;DHT22;53063;39.614;8.814;2023-06-22T07:45:05;31.10;47.20
66271;DHT22;53063;39.614;8.814;2023-06-22T07:47:34;31.30;46.50
66271;DHT22;53063;39.614;8.814;2023-06-22T07:50:01;31.50;46.30
66271;DHT22;53063;39.614;8.814;2023-06-22T07:52:29;31.50;45.20
66271;DHT22;53063;39.614;8.814;2023-06-22T07:54:55;31.60;45.60
66271;DHT22;53063;39.614;8.814;2023-06-22T07:57:21;31.90;44.50
66271;DHT22;53063;39.614;8.814;2023-06-22T07:59:46;32.00;43.90
66271;DHT22;53063;39.614;8.814;2023-06-22T08:02:13;32.30;43.80
66271;DHT22;53063;39.614;8.814;2023-06-22T08:04:39;32.70;43.80
66271;DHT22;53063;39.614;8.814;2023-06-22T08:07:06;32.90;41.70
66271;DHT22;53063;39.614;8.814;2023-06-22T08:09:33;32.80;41.80
66271;DHT22;53063;39.614;8.814;2023-06-22T08:11:59;32.90;41.30
66271;DHT22;53063;39.614;8.814;2023-06-22T08:14:26;33.10;41.00
66271;DHT22;53063;39.614;8.814;2023-06-22T08:16:52;33.30;41.10
66271;DHT22;53063;39.614;8.814;2023-06-22T08:19:18;33.90;40.60
66271;DHT22;53063;39.614;8.814;2023-06-22T08:21:44;33.70;39.40
66271;DHT22;53063;39.614;8.814;2023-06-22T08:24:10;33.70;39.50
66271;DHT22;53063;39.614;8.814;2023-06-22T08:26:36;33.80;39.30
66271;DHT22;53063;39.614;8.814;2023-06-22T08:29:06;33.90;38.90
66271;DHT22;53063;39.614;8.814;2023-06-22T08:31:32;34.30;39.10
66271;DHT22;53063;39.614;8.814;2023-06-22T08:33:59;34.40;38.60
66271;DHT22;53063;39.614;8.814;2023-06-22T08:36:25;33.80;39.60
66271;DHT22;53063;39.614;8.814;2023-06-22T08:38:54;33.40;39.70
66271;DHT22;53063;39.614;8.814;2023-06-22T08:41:23;33.40;39.70
66271;DHT22;53063;39.614;8.814;2023-06-22T08:43:49;33.80;39.80
66271;DHT22;53063;39.614;8.814;2023-06-22T08:46:15;34.10;38.90
66271;DHT22;53063;39.614;8.814;2023-06-22T08:48:45;34.20;38.30
66271;DHT22;53063;39.614;8.814;2023-06-22T08:51:11;34.50;38.50
66271;DHT22;53063;39.614;8.814;2023-06-22T08:53:37;34.60;38.10
66271;DHT22;53063;39.614;8.814;2023-06-22T08:56:03;34.90;37.80
66271;DHT22;53063;39.614;8.814;2023-06-22T08:58:29;35.30;36.30
66271;DHT22;53063;39.614;8.814;2023-06-22T09:00:55;35.40;35.80
66271;DHT22;53063;39.614;8.814;2023-06-22T09:03:21;35.20;35.80
66271;DHT22;53063;39.614;8.814;2023-06-22T09:05:47;35.50;34.70
66271;DHT22;53063;39.614;8.814;2023-06-22T09:08:13;35.50;35.50
66271;DHT22;53063;39.614;8.814;2023-06-22T09:10:39;35.90;35.30
66271;DHT22;53063;39.614;8.814;2023-06-22T09:13:04;36.00;35.60
66271;DHT22;53063;39.614;8.814;2023-06-22T09:15:30;36.20;35.60
66271;DHT22;53063;39.614;8.814;2023-06-22T09:17:56;36.20;34.60
66271;DHT22;53063;39.614;8.814;2023-06-22T09:20:23;36.50;35.10
66271;DHT22;53063;39.614;8.814;2023-06-22T09:22:49;36.30;35.00
66271;DHT22;53063;39.614;8.814;2023-06-22T09:25:15;36.60;34.50
66271;DHT22;53063;39.614;8.814;2023-06-22T09:27:41;36.80;34.80
66271;DHT22;53063;39.614;8.814;2023-06-22T09:30:07;36.40;34.70
66271;DHT22;53063;39.614;8.814;2023-06-22T09:32:33;36.20;34.60
66271;DHT22;53063;39.614;8.814;2023-06-22T09:35:03;36.30;34.70
66271;DHT22;53063;39.614;8.814;2023-06-22T09:37:31;36.20;34.60
66271;DHT22;53063;39.614;8.814;2023-06-22T09:39:57;36.60;33.90
66271;DHT22;53063;39.614;8.814;2023-06-22T09:42:23;37.00;33.80
66271;DHT22;53063;39.614;8.814;2023-06-22T09:44:49;37.10;33.70
66271;DHT22;53063;39.614;8.814;2023-06-22T09:47:14;37.20;33.30
66271;DHT22;53063;39.614;8.814;2023-06-22T09:49:40;37.00;32.90
66271;DHT22;53063;39.614;8.814;2023-06-22T09:52:06;36.90;33.00
66271;DHT22;53063;39.614;8.814;2023-06-22T09:54:32;36.80;32.50
66271;DHT22;53063;39.614;8.814;2023-06-22T09:56:58;37.30;32.70
66271;DHT22;53063;39.614;8.814;2023-06-22T09:59:24;37.20;32.10
66271;DHT22;53063;39.614;8.814;2023-06-22T10:01:50;37.40;32.00
66271;DHT22;53063;39.614;8.814;2023-06-22T10:04:16;37.20;32.50
66271;DHT22;53063;39.614;8.814;2023-06-22T10:06:42;37.20;33.10
66271;DHT22;53063;39.614;8.814;2023-06-22T10:09:08;36.90;32.90
66271;DHT22;53063;39.614;8.814;2023-06-22T10:11:34;37.10;32.70
66271;DHT22;53063;39.614;8.814;2023-06-22T10:14:01;37.20;32.80
66271;DHT22;53063;39.614;8.814;2023-06-22T10:16:35;37.20;32.60
66271;DHT22;53063;39.614;8.814;2023-06-22T10:19:01;37.40;32.90
66271;DHT22;53063;39.614;8.814;2023-06-22T10:21:27;37.10;33.40
66271;DHT22;53063;39.614;8.814;2023-06-22T10:23:54;37.10;32.10
66271;DHT22;53063;39.614;8.814;2023-06-22T10:26:21;37.30;32.50
66271;DHT22;53063;39.614;8.814;2023-06-22T10:28:47;37.40;32.60
66271;DHT22;53063;39.614;8.814;2023-06-22T10:31:13;37.30;32.20
66271;DHT22;53063;39.614;8.814;2023-06-22T10:33:39;37.30;32.50
66271;DHT22;53063;39.614;8.814;2023-06-22T10:36:07;37.30;32.30
66271;DHT22;53063;39.614;8.814;2023-06-22T10:38:33;37.80;32.10
66271;DHT22;53063;39.614;8.814;2023-06-22T10:40:58;37.60;30.70
66271;DHT22;53063;39.614;8.814;2023-06-22T10:43:24;37.90;31.30
66271;DHT22;53063;39.614;8.814;2023-06-22T10:45:50;37.90;30.50
66271;DHT22;53063;39.614;8.814;2023-06-22T10:48:16;38.30;31.40
66271;DHT22;53063;39.614;8.814;2023-06-22T10:50:42;38.50;30.50
66271;DHT22;53063;39.614;8.814;2023-06-22T10:53:08;38.80;30.80
66271;DHT22;53063;39.614;8.814;2023-06-22T10:55:34;38.50;31.20
66271;DHT22;53063;39.614;8.814;2023-06-22T10:58:00;38.30;32.00
66271;DHT22;53063;39.614;8.814;2023-06-22T11:00:26;37.80;31.10
66271;DHT22;53063;39.614;8.814;2023-06-22T11:02:51;37.80;31.70
66271;DHT22;53063;39.614;8.814;2023-06-22T11:05:17;38.30;30.40
66271;DHT22;53063;39.614;8.814;2023-06-22T11:07:44;38.10;30.50
66271;DHT22;53063;39.614;8.814;2023-06-22T11:10:10;37.70;31.70
66271;DHT22;53063;39.614;8.814;2023-06-22T11:12:36;38.10;31.30
66271;DHT22;53063;39.614;8.814;2023-06-22T11:15:03;38.20;31.40
66271;DHT22;53063;39.614;8.814;2023-06-22T11:17:28;38.30;31.40
66271;DHT22;53063;39.614;8.814;2023-06-22T11:19:54;38.50;30.40
66271;DHT22;53063;39.614;8.814;2023-06-22T11:22:20;38.80;30.80
66271;DHT22;53063;39.614;8.814;2023-06-22T11:24:46;38.90;30.50
66271;DHT22;53063;39.614;8.814;2023-06-22T11:27:12;38.90;31.00
66271;DHT22;53063;39.614;8.814;2023-06-22T11:29:38;39.20;29.30
66271;DHT22;53063;39.614;8.814;2023-06-22T11:32:06;38.70;28.80
66271;DHT22;53063;39.614;8.814;2023-06-22T11:34:32;38.70;29.90
66271;DHT22;53063;39.614;8.814;2023-06-22T11:36:58;39.20;29.40
66271;DHT22;53063;39.614;8.814;2023-06-22T11:39:24;39.50;28.80
66271;DHT22;53063;39.614;8.814;2023-06-22T11:41:50;39.50;29.80
66271;DHT22;53063;39.614;8.814;2023-06-22T11:44:16;39.40;29.20
66271;DHT22;53063;39.614;8.814;2023-06-22T11:46:42;39.30;29.20
66271;DHT22;53063;39.614;8.814;2023-06-22T11:49:08;39.40;28.40
66271;DHT22;53063;39.614;8.814;2023-06-22T11:51:34;39.30;28.70
66271;DHT22;53063;39.614;8.814;2023-06-22T11:54:00;39.60;29.00
66271;DHT22;53063;39.614;8.814;2023-06-22T11:56:26;39.20;29.30
66271;DHT22;53063;39.614;8.814;2023-06-22T11:58:53;39.30;30.30
66271;DHT22;53063;39.614;8.814;2023-06-22T12:01:19;39.30;30.00
66271;DHT22;53063;39.614;8.814;2023-06-22T12:03:45;39.60;31.00
66271;DHT22;53063;39.614;8.814;2023-06-22T12:06:11;39.30;30.20
66271;DHT22;53063;39.614;8.814;2023-06-22T12:08:37;39.10;29.60
66271;DHT22;53063;39.614;8.814;2023-06-22T12:11:03;39.30;29.40
66271;DHT22;53063;39.614;8.814;2023-06-22T12:13:29;39.30;29.80
66271;DHT22;53063;39.614;8.814;2023-06-22T12:15:55;38.90;29.90
66271;DHT22;53063;39.614;8.814;2023-06-22T12:18:21;38.90;29.80
66271;DHT22;53063;39.614;8.814;2023-06-22T12:20:47;39.00;29.60
66271;DHT22;53063;39.614;8.814;2023-06-22T12:23:14;39.50;29.40
66271;DHT22;53063;39.614;8.814;2023-06-22T12:25:40;39.20;29.60
66271;DHT22;53063;39.614;8.814;2023-06-22T12:28:06;39.40;29.40
66271;DHT22;53063;39.614;8.814;2023-06-22T12:30:35;39.50;29.30
66271;DHT22;53063;39.614;8.814;2023-06-22T12:33:01;39.50;29.70
66271;DHT22;53063;39.614;8.814;2023-06-22T12:35:26;39.60;29.30
66271;DHT22;53063;39.614;8.814;2023-06-22T12:37:52;39.80;29.90
66271;DHT22;53063;39.614;8.814;2023-06-22T12:40:18;39.90;29.30
66271;DHT22;53063;39.614;8.814;2023-06-22T12:42:45;39.70;29.90
66271;DHT22;53063;39.614;8.814;2023-06-22T12:45:11;39.90;29.50
66271;DHT22;53063;39.614;8.814;2023-06-22T12:47:37;39.80;29.00
66271;DHT22;53063;39.614;8.814;2023-06-22T12:50:03;39.80;28.50
66271;DHT22;53063;39.614;8.814;2023-06-22T12:52:30;39.60;29.10
66271;DHT22;53063;39.614;8.814;2023-06-22T12:54:57;39.80;28.20
66271;DHT22;53063;39.614;8.814;2023-06-22T12:57:24;39.40;28.90
66271;DHT22;53063;39.614;8.814;2023-06-22T12:59:49;39.60;32.70
66271;DHT22;53063;39.614;8.814;2023-06-22T13:02:15;39.80;30.00
66271;DHT22;53063;39.614;8.814;2023-06-22T13:04:41;40.30;29.20
66271;DHT22;53063;39.614;8.814;2023-06-22T13:07:09;40.40;29.20
66271;DHT22;53063;39.614;8.814;2023-06-22T13:09:36;40.10;28.50
66271;DHT22;53063;39.614;8.814;2023-06-22T13:12:02;40.10;28.10
66271;DHT22;53063;39.614;8.814;2023-06-22T13:14:28;39.90;29.30
66271;DHT22;53063;39.614;8.814;2023-06-22T13:16:54;40.20;28.20
66271;DHT22;53063;39.614;8.814;2023-06-22T13:19:20;40.30;29.90
66271;DHT22;53063;39.614;8.814;2023-06-22T13:21:46;40.20;32.10
66271;DHT22;53063;39.614;8.814;2023-06-22T13:24:11;40.00;33.60
66271;DHT22;53063;39.614;8.814;2023-06-22T13:26:38;40.10;32.90
66271;DHT22;53063;39.614;8.814;2023-06-22T13:29:04;39.90;34.50
66271;DHT22;53063;39.614;8.814;2023-06-22T13:31:30;39.50;34.50
66271;DHT22;53063;39.614;8.814;2023-06-22T13:33:55;39.50;34.20
66271;DHT22;53063;39.614;8.814;2023-06-22T13:36:21;39.40;34.70
66271;DHT22;53063;39.614;8.814;2023-06-22T13:38:49;39.20;34.80
66271;DHT22;53063;39.614;8.814;2023-06-22T13:41:15;39.10;35.20
66271;DHT22;53063;39.614;8.814;2023-06-22T13:43:41;39.00;36.30
66271;DHT22;53063;39.614;8.814;2023-06-22T13:46:06;38.80;37.40
66271;DHT22;53063;39.614;8.814;2023-06-22T13:48:32;38.60;37.10
66271;DHT22;53063;39.614;8.814;2023-06-22T13:50:58;38.20;36.70
66271;DHT22;53063;39.614;8.814;2023-06-22T13:53:25;37.90;37.60
66271;DHT22;53063;39.614;8.814;2023-06-22T13:55:52;38.00;38.00
66271;DHT22;53063;39.614;8.814;2023-06-22T13:58:17;37.90;37.70
66271;DHT22;53063;39.614;8.814;2023-06-22T14:00:45;37.80;37.90
66271;DHT22;53063;39.614;8.814;2023-06-22T14:03:11;37.80;38.70
66271;DHT22;53063;39.614;8.814;2023-06-22T14:05:37;37.50;39.10
66271;DHT22;53063;39.614;8.814;2023-06-22T14:08:03;37.20;39.50
66271;DHT22;53063;39.614;8.814;2023-06-22T14:10:28;37.20;39.30
66271;DHT22;53063;39.614;8.814;2023-06-22T14:12:54;36.90;40.30
66271;DHT22;53063;39.614;8.814;2023-06-22T14:15:20;37.00;41.60
66271;DHT22;53063;39.614;8.814;2023-06-22T14:17:46;37.00;43.10
66271;DHT22;53063;39.614;8.814;2023-06-22T14:20:12;36.60;42.70
66271;DHT22;53063;39.614;8.814;2023-06-22T14:22:38;36.30;45.50
66271;DHT22;53063;39.614;8.814;2023-06-22T14:25:06;35.90;46.30
66271;DHT22;53063;39.614;8.814;2023-06-22T14:27:32;35.40;47.80
66271;DHT22;53063;39.614;8.814;2023-06-22T14:29:57;34.90;49.00
66271;DHT22;53063;39.614;8.814;2023-06-22T14:32:23;34.70;49.50
66271;DHT22;53063;39.614;8.814;2023-06-22T14:34:50;34.40;48.10
66271;DHT22;53063;39.614;8.814;2023-06-22T14:37:16;34.10;49.00
66271;DHT22;53063;39.614;8.814;2023-06-22T14:39:42;34.30;49.40
66271;DHT22;53063;39.614;8.814;2023-06-22T14:42:08;34.30;49.20
66271;DHT22;53063;39.614;8.814;2023-06-22T14:44:34;34.30;48.50
66271;DHT22;53063;39.614;8.814;2023-06-22T14:47:00;34.00;48.60
66271;DHT22;53063;39.614;8.814;2023-06-22T14:49:27;33.70;49.20
66271;DHT22;53063;39.614;8.814;2023-06-22T14:51:53;33.80;49.60
66271;DHT22;53063;39.614;8.814;2023-06-22T14:54:19;33.60;47.60
66271;DHT22;53063;39.614;8.814;2023-06-22T14:56:45;33.50;48.90
66271;DHT22;53063;39.614;8.814;2023-06-22T14:59:11;33.60;49.20
66271;DHT22;53063;39.614;8.814;2023-06-22T15:01:37;33.80;49.30
66271;DHT22;53063;39.614;8.814;2023-06-22T15:04:03;33.80;49.90
66271;DHT22;53063;39.614;8.814;2023-06-22T15:06:28;33.70;50.00
66271;DHT22;53063;39.614;8.814;2023-06-22T15:08:54;33.30;49.80
66271;DHT22;53063;39.614;8.814;2023-06-22T15:11:20;33.20;50.70
66271;DHT22;53063;39.614;8.814;2023-06-22T15:13:47;33.10;51.40
66271;DHT22;53063;39.614;8.814;2023-06-22T15:16:12;33.20;51.90
66271;DHT22;53063;39.614;8.814;2023-06-22T15:18:38;33.10;52.00
66271;DHT22;53063;39.614;8.814;2023-06-22T15:21:06;33.00;53.00
66271;DHT22;53063;39.614;8.814;2023-06-22T15:23:33;32.90;53.50
66271;DHT22;53063;39.614;8.814;2023-06-22T15:26:02;32.80;53.70
66271;DHT22;53063;39.614;8.814;2023-06-22T15:28:29;32.70;54.10
66271;DHT22;53063;39.614;8.814;2023-06-22T15:30:55;32.60;54.40
66271;DHT22;53063;39.614;8.814;2023-06-22T15:33:21;32.40;54.10
66271;DHT22;53063;39.614;8.814;2023-06-22T15:35:47;31.90;54.90
66271;DHT22;53063;39.614;8.814;2023-06-22T15:38:13;31.80;55.20
66271;DHT22;53063;39.614;8.814;2023-06-22T15:40:39;31.50;55.90
66271;DHT22;53063;39.614;8.814;2023-06-22T15:43:05;31.70;56.80
66271;DHT22;53063;39.614;8.814;2023-06-22T15:45:31;31.70;56.40
66271;DHT22;53063;39.614;8.814;2023-06-22T15:47:57;31.50;56.20
66271;DHT22;53063;39.614;8.814;2023-06-22T15:50:23;31.50;56.10
66271;DHT22;53063;39.614;8.814;2023-06-22T15:52:49;31.60;55.70
66271;DHT22;53063;39.614;8.814;2023-06-22T15:55:18;31.60;55.40
66271;DHT22;53063;39.614;8.814;2023-06-22T15:57:44;31.60;55.40
66271;DHT22;53063;39.614;8.814;2023-06-22T16:00:17;31.60;55.20
66271;DHT22;53063;39.614;8.814;2023-06-22T16:02:44;31.70;55.40
66271;DHT22;53063;39.614;8.814;2023-06-22T16:05:10;32.00;54.80
66271;DHT22;53063;39.614;8.814;2023-06-22T16:07:37;32.00;54.70
66271;DHT22;53063;39.614;8.814;2023-06-22T16:10:04;32.00;54.30
66271;DHT22;53063;39.614;8.814;2023-06-22T16:12:30;32.10;54.80
66271;DHT22;53063;39.614;8.814;2023-06-22T16:14:55;32.00;54.80
66271;DHT22;53063;39.614;8.814;2023-06-22T16:17:22;31.90;55.60
66271;DHT22;53063;39.614;8.814;2023-06-22T16:19:48;32.00;55.30
66271;DHT22;53063;39.614;8.814;2023-06-22T16:22:14;31.80;55.70
66271;DHT22;53063;39.614;8.814;2023-06-22T16:24:40;31.80;55.40
66271;DHT22;53063;39.614;8.814;2023-06-22T16:27:06;31.80;55.40
66271;DHT22;53063;39.614;8.814;2023-06-22T16:29:32;31.70;55.20
66271;DHT22;53063;39.614;8.814;2023-06-22T16:31:58;31.70;55.40
66271;DHT22;53063;39.614;8.814;2023-06-22T16:34:25;31.60;55.00
66271;DHT22;53063;39.614;8.814;2023-06-22T16:36:54;31.60;54.90
66271;DHT22;53063;39.614;8.814;2023-06-22T16:39:20;31.60;55.30
66271;DHT22;53063;39.614;8.814;2023-06-22T16:41:46;31.70;54.90
66271;DHT22;53063;39.614;8.814;2023-06-22T16:44:12;31.50;55.30
66271;DHT22;53063;39.614;8.814;2023-06-22T16:46:38;31.30;56.00
66271;DHT22;53063;39.614;8.814;2023-06-22T16:49:06;31.10;56.90
66271;DHT22;53063;39.614;8.814;2023-06-22T16:51:31;30.90;57.50
66271;DHT22;53063;39.614;8.814;2023-06-22T16:53:57;30.70;58.20
66271;DHT22;53063;39.614;8.814;2023-06-22T16:56:28;30.50;59.20
66271;DHT22;53063;39.614;8.814;2023-06-22T16:58:55;30.50;59.70
66271;DHT22;53063;39.614;8.814;2023-06-22T17:01:23;30.40;59.00
66271;DHT22;53063;39.614;8.814;2023-06-22T17:04:01;30.50;60.00
66271;DHT22;53063;39.614;8.814;2023-06-22T17:06:27;30.50;60.70
66271;DHT22;53063;39.614;8.814;2023-06-22T17:08:55;30.40;61.80
66271;DHT22;53063;39.614;8.814;2023-06-22T17:11:23;30.10;63.10
66271;DHT22;53063;39.614;8.814;2023-06-22T17:13:49;30.00;64.40
66271;DHT22;53063;39.614;8.814;2023-06-22T17:16:16;29.80;64.80
66271;DHT22;53063;39.614;8.814;2023-06-22T17:18:43;29.70;66.40
66271;DHT22;53063;39.614;8.814;2023-06-22T17:21:12;29.60;67.80
66271;DHT22;53063;39.614;8.814;2023-06-22T17:23:38;29.30;68.40
66271;DHT22;53063;39.614;8.814;2023-06-22T17:26:06;29.10;70.70
66271;DHT22;53063;39.614;8.814;2023-06-22T17:28:49;29.00;72.10
66271;DHT22;53063;39.614;8.814;2023-06-22T17:31:15;28.90;73.10
66271;DHT22;53063;39.614;8.814;2023-06-22T17:33:42;28.90;73.40
66271;DHT22;53063;39.614;8.814;2023-06-22T17:36:12;28.90;73.90
66271;DHT22;53063;39.614;8.814;2023-06-22T17:38:39;28.90;74.60
66271;DHT22;53063;39.614;8.814;2023-06-22T17:41:05;28.70;75.20
66271;DHT22;53063;39.614;8.814;2023-06-22T17:43:31;28.60;75.80
66271;DHT22;53063;39.614;8.814;2023-06-22T17:45:59;28.50;76.40
66271;DHT22;53063;39.614;8.814;2023-06-22T17:48:25;28.40;77.30
66271;DHT22;53063;39.614;8.814;2023-06-22T17:50:51;28.40;78.10
66271;DHT22;53063;39.614;8.814;2023-06-22T17:53:18;28.30;78.20
66271;DHT22;53063;39.614;8.814;2023-06-22T17:55:44;28.30;78.60
66271;DHT22;53063;39.614;8.814;2023-06-22T17:58:10;28.20;78.40
66271;DHT22;53063;39.614;8.814;2023-06-22T18:00:36;28.20;78.40
66271;DHT22;53063;39.614;8.814;2023-06-22T18:03:02;28.10;78.50
66271;DHT22;53063;39.614;8.814;2023-06-22T18:05:33;28.00;79.40
66271;DHT22;53063;39.614;8.814;2023-06-22T18:08:01;27.80;80.60
66271;DHT22;53063;39.614;8.814;2023-06-22T18:10:28;27.80;81.30
66271;DHT22;53063;39.614;8.814;2023-06-22T18:12:55;27.80;82.20
66271;DHT22;53063;39.614;8.814;2023-06-22T18:15:23;27.80;82.50
66271;DHT22;53063;39.614;8.814;2023-06-22T18:17:51;27.80;82.70
66271;DHT22;53063;39.614;8.814;2023-06-22T18:20:18;27.70;83.00
66271;DHT22;53063;39.614;8.814;2023-06-22T18:22:49;27.60;83.40
66271;DHT22;53063;39.614;8.814;2023-06-22T18:25:15;27.50;83.90
66271;DHT22;53063;39.614;8.814;2023-06-22T18:27:46;27.50;84.40
66271;DHT22;53063;39.614;8.814;2023-06-22T18:30:13;27.40;84.70
66271;DHT22;53063;39.614;8.814;2023-06-22T18:32:42;27.30;85.40
66271;DHT22;53063;39.614;8.814;2023-06-22T18:35:09;27.30;85.80
66271;DHT22;53063;39.614;8.814;2023-06-22T18:37:39;27.10;86.70
66271;DHT22;53063;39.614;8.814;2023-06-22T18:40:07;27.00;88.60
66271;DHT22;53063;39.614;8.814;2023-06-22T18:42:47;26.80;89.50
66271;DHT22;53063;39.614;8.814;2023-06-22T18:45:24;26.70;91.90
66271;DHT22;53063;39.614;8.814;2023-06-22T18:48:01;26.60;93.40
66271;DHT22;53063;39.614;8.814;2023-06-22T18:50:40;26.50;94.90
66271;DHT22;53063;39.614;8.814;2023-06-22T18:53:31;26.50;95.80
66271;DHT22;53063;39.614;8.814;2023-06-22T18:56:22;26.40;97.00
66271;DHT22;53063;39.614;8.814;2023-06-22T18:58:56;26.20;98.80
66271;DHT22;53063;39.614;8.814;2023-06-22T19:01:23;26.20;99.90
66271;DHT22;53063;39.614;8.814;2023-06-22T19:03:50;26.20;99.90
66271;DHT22;53063;39.614;8.814;2023-06-22T19:09:16;26.00;99.90
66271;DHT22;53063;39.614;8.814;2023-06-22T19:11:44;25.90;99.90
66271;DHT22;53063;39.614;8.814;2023-06-22T19:14:21;25.90;99.90
66271;DHT22;53063;39.614;8.814;2023-06-22T19:16:48;25.90;99.90
66271;DHT22;53063;39.614;8.814;2023-06-22T19:19:23;25.90;99.90
66271;DHT22;53063;39.614;8.814;2023-06-22T19:21:59;25.90;99.90
66271;DHT22;53063;39.614;8.814;2023-06-22T19:24:30;25.80;99.90
66271;DHT22;53063;39.614;8.814;2023-06-22T19:26:56;25.80;99.90
66271;DHT22;53063;39.614;8.814;2023-06-22T19:29:23;25.70;99.90
66271;DHT22;53063;39.614;8.814;2023-06-22T19:31:50;25.70;99.90
66271;DHT22;53063;39.614;8.814;2023-06-22T19:34:16;25.60;99.90
66271;DHT22;53063;39.614;8.814;2023-06-22T19:36:42;25.50;99.90
66271;DHT22;53063;39.614;8.814;2023-06-22T19:39:07;25.50;99.90
66271;DHT22;53063;39.614;8.814;2023-06-22T19:41:34;25.50;99.90
66271;DHT22;53063;39.614;8.814;2023-06-22T19:44:00;25.50;99.90
66271;DHT22;53063;39.614;8.814;2023-06-22T19:46:30;25.40;99.90
66271;DHT22;53063;39.614;8.814;2023-06-22T19:48:57;25.50;99.90
66271;DHT22;53063;39.614;8.814;2023-06-22T19:51:33;25.40;99.90
66271;DHT22;53063;39.614;8.814;2023-06-22T19:54:09;25.40;99.90
66271;DHT22;53063;39.614;8.814;2023-06-22T19:56:37;25.30;99.90
66271;DHT22;53063;39.614;8.814;2023-06-22T19:59:13;25.20;99.90
66271;DHT22;53063;39.614;8.814;2023-06-22T20:01:42;25.20;99.90
66271;DHT22;53063;39.614;8.814;2023-06-22T20:04:10;25.10;99.90
66271;DHT22;53063;39.614;8.814;2023-06-22T20:06:36;25.20;99.90
66271;DHT22;53063;39.614;8.814;2023-06-22T20:09:03;25.10;99.90
66271;DHT22;53063;39.614;8.814;2023-06-22T20:11:33;25.10;99.90
66271;DHT22;53063;39.614;8.814;2023-06-22T20:14:00;25.10;99.90
66271;DHT22;53063;39.614;8.814;2023-06-22T20:16:28;25.10;99.90
66271;DHT22;53063;39.614;8.814;2023-06-22T20:19:10;25.10;99.90
66271;DHT22;53063;39.614;8.814;2023-06-22T20:21:38;25.10;99.90
66271;DHT22;53063;39.614;8.814;2023-06-22T20:24:05;25.00;99.90
66271;DHT22;53063;39.614;8.814;2023-06-22T20:32:09;24.90;99.90
66271;DHT22;53063;39.614;8.814;2023-06-22T20:34:45;24.90;99.90
66271;DHT22;53063;39.614;8.814;2023-06-22T20:37:14;24.80;99.90
66271;DHT22;53063;39.614;8.814;2023-06-22T20:39:41;24.90;99.90
66271;DHT22;53063;39.614;8.814;2023-06-22T20:42:09;24.90;99.90
66271;DHT22;53063;39.614;8.814;2023-06-22T20:44:37;24.90;99.90
66271;DHT22;53063;39.614;8.814;2023-06-22T20:47:03;24.90;99.90
66271;DHT22;53063;39.614;8.814;2023-06-22T20:49:29;24.90;99.90
66271;DHT22;53063;39.614;8.814;2023-06-22T20:51:55;24.90;99.90
66271;DHT22;53063;39.614;8.814;2023-06-22T20:54:21;24.90;99.90
66271;DHT22;53063;39.614;8.814;2023-06-22T20:56:47;24.80;99.90
66271;DHT22;53063;39.614;8.814;2023-06-22T20:59:14;24.90;99.90
66271;DHT22;53063;39.614;8.814;2023-06-22T21:01:39;24.80;99.90
66271;DHT22;53063;39.614;8.814;2023-06-22T21:04:06;24.80;99.90
66271;DHT22;53063;39.614;8.814;2023-06-22T21:06:32;24.70;99.90
66271;DHT22;53063;39.614;8.814;2023-06-22T21:08:57;24.80;99.90
66271;DHT22;53063;39.614;8.814;2023-06-22T21:11:23;24.70;99.90
66271;DHT22;53063;39.614;8.814;2023-06-22T21:13:49;24.80;99.90
66271;DHT22;53063;39.614;8.814;2023-06-22T21:16:15;24.80;99.90
66271;DHT22;53063;39.614;8.814;2023-06-22T21:18:41;24.70;99.90
66271;DHT22;53063;39.614;8.814;2023-06-22T21:21:07;24.70;99.90
66271;DHT22;53063;39.614;8.814;2023-06-22T21:23:33;24.70;99.90
66271;DHT22;53063;39.614;8.814;2023-06-22T21:25:59;24.70;99.90
66271;DHT22;53063;39.614;8.814;2023-06-22T21:28:25;24.70;99.90
66271;DHT22;53063;39.614;8.814;2023-06-22T21:30:51;24.70;99.90
66271;DHT22;53063;39.614;8.814;2023-06-22T21:33:17;24.70;99.90
66271;DHT22;53063;39.614;8.814;2023-06-22T21:35:43;24.60;99.90
66271;DHT22;53063;39.614;8.814;2023-06-22T21:38:09;24.60;99.90
66271;DHT22;53063;39.614;8.814;2023-06-22T21:40:35;24.60;99.90
66271;DHT22;53063;39.614;8.814;2023-06-22T21:43:00;24.60;99.90
66271;DHT22;53063;39.614;8.814;2023-06-22T21:45:26;24.50;99.90
66271;DHT22;53063;39.614;8.814;2023-06-22T21:47:52;24.60;99.90
66271;DHT22;53063;39.614;8.814;2023-06-22T21:50:19;24.60;99.90
66271;DHT22;53063;39.614;8.814;2023-06-22T21:52:45;24.50;99.90
66271;DHT22;53063;39.614;8.814;2023-06-22T21:55:11;24.50;99.90
66271;DHT22;53063;39.614;8.814;2023-06-22T21:57:37;24.50;99.90
66271;DHT22;53063;39.614;8.814;2023-06-22T22:00:03;24.50;99.90
66271;DHT22;53063;39.614;8.814;2023-06-22T22:02:33;24.40;99.90
66271;DHT22;53063;39.614;8.814;2023-06-22T22:04:59;24.40;99.90
66271;DHT22;53063;39.614;8.814;2023-06-22T22:07:25;24.40;99.90
66271;DHT22;53063;39.614;8.814;2023-06-22T22:09:51;24.40;99.90